createdAt,value
2023-04-30T00:00:43.000Z,11.9
2023-04-30T00:01:59.000Z,11.9
2023-04-30T00:03:16.000Z,11.9
2023-04-30T00:04:33.921Z,11.8
2023-04-30T00:05:48.000Z,11.8
2023-04-30T00:07:04.000Z,11.7
2023-04-30T00:08:20.000Z,11.7
2023-04-30T00:09:37.000Z,11.7
2023-04-30T00:10:53.000Z,11.7
2023-04-30T00:12:10.095Z,11.6
2023-04-30T00:13:24.000Z,11.6
2023-04-30T00:14:40.000Z,11.5
2023-04-30T00:15:57.000Z,11.5
2023-04-30T00:17:13.000Z,11.4
2023-04-30T00:18:29.000Z,11.4
2023-04-30T00:19:45.000Z,11.4
2023-04-30T00:21:00.000Z,11.3
2023-04-30T00:22:16.000Z,11.3
2023-04-30T00:23:32.000Z,11.2
2023-04-30T00:24:49.097Z,11.2
2023-04-30T00:26:02.000Z,11.1
2023-04-30T00:27:20.250Z,11.1
2023-04-30T00:28:35.000Z,11
2023-04-30T00:29:52.637Z,11
2023-04-30T00:31:07.000Z,11
2023-04-30T00:32:25.284Z,11
2023-04-30T00:33:41.219Z,10.9
2023-04-30T00:34:56.000Z,10.9
2023-04-30T00:36:12.000Z,10.9
2023-04-30T00:37:28.000Z,10.8
2023-04-30T00:38:44.000Z,10.8
2023-04-30T00:40:00.000Z,10.7
2023-04-30T00:41:17.000Z,10.7
2023-04-30T00:42:33.842Z,10.7
2023-04-30T00:43:45.000Z,10.5
2023-04-30T00:43:48.000Z,10.6
2023-04-30T00:45:06.235Z,10.6
2023-04-30T00:46:22.173Z,10.6
2023-04-30T00:47:37.000Z,10.6
2023-04-30T00:48:53.000Z,10.5
2023-04-30T00:51:24.000Z,10.5
2023-04-30T00:52:41.438Z,10.4
2023-04-30T00:53:55.000Z,10.4
2023-04-30T00:55:11.615Z,10.4
2023-04-30T00:56:26.000Z,10.4
2023-04-30T00:57:44.259Z,10.4
2023-04-30T00:58:58.000Z,10.4
2023-04-30T01:00:16.644Z,10.3
2023-04-30T01:01:31.000Z,10.3
2023-04-30T01:02:44.000Z,10.2
2023-04-30T01:02:48.778Z,10.3
2023-04-30T01:04:03.000Z,10.3
2023-04-30T01:05:21.166Z,10.3
2023-04-30T01:06:36.000Z,10.2
2023-04-30T01:07:53.806Z,10.2
2023-04-30T01:10:24.000Z,10.2
2023-04-30T01:11:41.152Z,10.2
2023-04-30T01:12:57.345Z,10.1
2023-04-30T01:14:12.000Z,10.1
2023-04-30T01:15:28.000Z,10.1
2023-04-30T01:16:44.000Z,10
2023-04-30T01:18:00.000Z,10
2023-04-30T01:19:17.000Z,10
2023-04-30T01:20:32.000Z,9.9
2023-04-30T01:21:47.000Z,9.9
2023-04-30T01:23:04.225Z,9.9
2023-04-30T01:24:17.000Z,9.8
2023-04-30T01:25:35.617Z,9.8
2023-04-30T01:26:50.000Z,9.8
2023-04-30T01:28:06.000Z,9.8
2023-04-30T01:29:22.000Z,9.8
2023-04-30T01:30:38.000Z,9.8
2023-04-30T01:31:55.000Z,9.8
2023-04-30T01:33:11.000Z,9.7
2023-04-30T01:34:27.000Z,9.7
2023-04-30T01:35:43.000Z,9.7
2023-04-30T01:36:59.000Z,9.6
2023-04-30T01:38:16.000Z,9.6
2023-04-30T01:39:32.000Z,9.6
2023-04-30T01:40:48.958Z,9.6
2023-04-30T01:42:03.000Z,9.6
2023-04-30T01:43:21.349Z,9.6
2023-04-30T01:44:35.000Z,9.6
2023-04-30T01:45:53.738Z,9.6
2023-04-30T01:47:08.000Z,9.6
2023-04-30T01:48:26.129Z,9.5
2023-04-30T01:49:41.095Z,9.5
2023-04-30T01:50:56.556Z,9.5
2023-04-30T01:52:11.768Z,9.5
2023-04-30T01:53:26.736Z,9.5
2023-04-30T01:54:41.000Z,9.4
2023-04-30T01:55:57.000Z,9.4
2023-04-30T01:57:14.000Z,9.4
2023-04-30T01:58:30.000Z,9.4
2023-04-30T01:59:46.000Z,9.4
2023-04-30T02:01:02.000Z,9.4
2023-04-30T02:02:20.093Z,9.4
2023-04-30T02:03:34.000Z,9.4
2023-04-30T02:04:51.000Z,9.4
2023-04-30T02:06:07.000Z,9.3
2023-04-30T02:07:25.112Z,9.3
2023-04-30T02:08:41.312Z,9.3
2023-04-30T02:09:54.000Z,9.3
2023-04-30T02:11:11.000Z,9.2
2023-04-30T02:12:27.000Z,9.2
2023-04-30T02:13:38.000Z,9.1
2023-04-30T02:13:43.000Z,9.2
2023-04-30T02:14:59.000Z,9.2
2023-04-30T02:16:17.505Z,9.2
2023-04-30T02:17:32.000Z,9.1
2023-04-30T02:18:47.000Z,9.1
2023-04-30T02:21:19.344Z,9.1
2023-04-30T02:22:32.000Z,9.1
2023-04-30T02:23:50.746Z,9.1
2023-04-30T02:25:05.000Z,9.1
2023-04-30T02:26:21.000Z,9.1
2023-04-30T02:27:37.000Z,9.1
2023-04-30T02:28:53.000Z,9.1
2023-04-30T02:30:10.000Z,9.1
2023-04-30T02:31:26.000Z,9
2023-04-30T02:32:42.000Z,9
2023-04-30T02:34:00.312Z,9
2023-04-30T02:35:14.000Z,9
2023-04-30T02:36:31.000Z,9
2023-04-30T02:37:47.000Z,9
2023-04-30T02:39:02.000Z,9
2023-04-30T02:40:18.000Z,9
2023-04-30T02:41:31.000Z,9
2023-04-30T02:41:36.230Z,9
2023-04-30T02:42:51.000Z,8.9
2023-04-30T02:44:01.000Z,9
2023-04-30T02:44:07.000Z,9
2023-04-30T02:45:23.000Z,9
2023-04-30T02:46:41.005Z,9
2023-04-30T02:49:11.435Z,9
2023-04-30T02:51:40.000Z,9
2023-04-30T02:52:58.060Z,9
2023-04-30T02:54:14.512Z,9
2023-04-30T02:55:29.000Z,9
2023-04-30T02:56:46.642Z,9
2023-04-30T02:58:01.000Z,8.9
2023-04-30T02:59:19.276Z,8.9
2023-04-30T03:00:33.000Z,8.9
2023-04-30T03:03:06.000Z,8.9
2023-04-30T03:04:24.060Z,8.9
2023-04-30T03:05:38.000Z,8.9
2023-04-30T03:06:56.434Z,8.9
2023-04-30T03:08:11.644Z,8.9
2023-04-30T03:09:26.000Z,8.9
2023-04-30T03:10:42.000Z,8.9
2023-04-30T03:12:00.238Z,8.9
2023-04-30T03:13:14.000Z,8.9
2023-04-30T03:14:31.000Z,8.9
2023-04-30T03:15:47.000Z,8.9
2023-04-30T03:17:03.000Z,8.8
2023-04-30T03:18:18.000Z,8.8
2023-04-30T03:19:33.000Z,8.8
2023-04-30T03:20:50.000Z,8.8
2023-04-30T03:22:05.000Z,8.8
2023-04-30T03:23:21.815Z,8.9
2023-04-30T03:24:38.260Z,8.9
2023-04-30T03:25:52.000Z,8.9
2023-04-30T03:27:09.000Z,8.9
2023-04-30T03:28:25.000Z,8.8
2023-04-30T03:29:43.034Z,8.8
2023-04-30T03:30:57.000Z,8.9
2023-04-30T03:32:13.000Z,8.8
2023-04-30T03:33:30.000Z,8.8
2023-04-30T03:34:46.000Z,8.8
2023-04-30T03:36:03.754Z,8.8
2023-04-30T03:37:18.000Z,8.8
2023-04-30T03:38:34.000Z,8.7
2023-04-30T03:39:50.000Z,8.7
2023-04-30T03:41:06.000Z,8.7
2023-04-30T03:42:23.985Z,8.7
2023-04-30T03:43:38.000Z,8.7
2023-04-30T03:44:54.000Z,8.7
2023-04-30T03:46:10.000Z,8.7
2023-04-30T03:47:28.758Z,8.7
2023-04-30T03:48:42.000Z,8.7
2023-04-30T03:49:57.000Z,8.6
2023-04-30T03:51:13.000Z,8.6
2023-04-30T03:52:30.000Z,8.5
2023-04-30T03:53:46.000Z,8.5
2023-04-30T03:55:02.000Z,8.5
2023-04-30T03:56:19.917Z,8.5
2023-04-30T03:57:34.000Z,8.5
2023-04-30T03:58:52.554Z,8.5
2023-04-30T04:00:07.000Z,8.5
2023-04-30T04:01:23.000Z,8.4
2023-04-30T04:02:40.886Z,8.4
2023-04-30T04:03:55.000Z,8.4
2023-04-30T04:05:13.518Z,8.3
2023-04-30T04:06:27.000Z,8.3
2023-04-30T04:07:43.000Z,8.3
2023-04-30T04:08:59.000Z,8.3
2023-04-30T04:10:15.000Z,8.3
2023-04-30T04:11:31.000Z,8.2
2023-04-30T04:12:48.000Z,8.2
2023-04-30T04:14:04.000Z,8.2
2023-04-30T04:15:19.000Z,8.2
2023-04-30T04:16:34.000Z,8.2
2023-04-30T04:17:52.529Z,8.2
2023-04-30T04:19:07.000Z,8.2
2023-04-30T04:20:24.934Z,8.2
2023-04-30T04:21:39.000Z,8.2
2023-04-30T04:22:55.000Z,8.3
2023-04-30T04:24:13.515Z,8.3
2023-04-30T04:25:29.456Z,8.3
2023-04-30T04:26:45.898Z,8.3
2023-04-30T04:28:00.000Z,8.3
2023-04-30T04:29:16.000Z,8.3
2023-04-30T04:30:32.000Z,8.3
2023-04-30T04:31:49.000Z,8.3
2023-04-30T04:33:05.645Z,8.3
2023-04-30T04:34:20.000Z,8.3
2023-04-30T04:35:36.000Z,8.3
2023-04-30T04:36:54.475Z,8.3
2023-04-30T04:38:10.426Z,8.2
2023-04-30T04:39:25.000Z,8.2
2023-04-30T04:40:41.000Z,8.3
2023-04-30T04:41:56.000Z,8.4
2023-04-30T04:43:11.000Z,8.4
2023-04-30T04:44:27.000Z,8.4
2023-04-30T04:45:42.000Z,8.4
2023-04-30T04:46:57.000Z,8.5
2023-04-30T04:48:14.366Z,8.5
2023-04-30T04:49:28.000Z,8.6
2023-04-30T04:50:45.000Z,8.6
2023-04-30T04:52:01.000Z,8.6
2023-04-30T04:53:17.000Z,8.5
2023-04-30T04:54:33.000Z,8.6
2023-04-30T04:55:51.557Z,8.7
2023-04-30T04:57:06.000Z,8.7
2023-04-30T04:58:22.000Z,8.8
2023-04-30T04:59:38.000Z,8.9
2023-04-30T05:00:54.000Z,8.9
2023-04-30T05:02:12.521Z,8.9
2023-04-30T05:03:28.470Z,8.9
2023-04-30T05:04:42.000Z,8.9
2023-04-30T05:05:58.000Z,8.9
2023-04-30T05:07:14.000Z,8.9
2023-04-30T05:08:32.268Z,9
2023-04-30T05:09:47.000Z,9.1
2023-04-30T05:11:04.660Z,9.2
2023-04-30T05:12:19.000Z,9.2
2023-04-30T05:13:36.328Z,9.3
2023-04-30T05:14:49.000Z,9.4
2023-04-30T05:16:01.000Z,10
2023-04-30T05:16:05.000Z,9.5
2023-04-30T05:17:21.966Z,9.6
2023-04-30T05:18:37.919Z,9.7
2023-04-30T05:19:52.000Z,9.8
2023-04-30T05:21:08.000Z,9.9
2023-04-30T05:23:42.702Z,10
2023-04-30T05:24:57.000Z,10
2023-04-30T05:26:15.346Z,10
2023-04-30T05:27:31.289Z,10.1
2023-04-30T05:28:46.000Z,10.1
2023-04-30T05:30:03.929Z,10.2
2023-04-30T05:31:20.124Z,10.3
2023-04-30T05:32:34.000Z,10.3
2023-04-30T05:33:51.284Z,10.3
2023-04-30T05:35:06.000Z,10.2
2023-04-30T05:36:23.925Z,10.2
2023-04-30T05:37:38.000Z,10.2
2023-04-30T05:38:56.308Z,10.3
2023-04-30T05:40:12.510Z,10.3
2023-04-30T05:41:28.730Z,10.3
2023-04-30T05:42:43.930Z,10.3
2023-04-30T05:43:57.000Z,10.3
2023-04-30T05:45:13.000Z,10.3
2023-04-30T05:46:28.000Z,10.3
2023-04-30T05:47:45.770Z,10.3
2023-04-30T05:49:01.716Z,10.3
2023-04-30T05:50:16.000Z,10.3
2023-04-30T05:51:32.000Z,10.2
2023-04-30T05:52:50.303Z,10.2
2023-04-30T05:54:06.760Z,10.4
2023-04-30T05:55:21.000Z,10.4
2023-04-30T05:56:38.891Z,10.4
2023-04-30T05:57:53.000Z,10.5
2023-04-30T05:59:11.527Z,10.6
2023-04-30T06:00:26.000Z,10.7
2023-04-30T06:01:38.000Z,10.7
2023-04-30T06:01:42.000Z,10.7
2023-04-30T06:02:58.000Z,10.8
2023-04-30T06:04:13.000Z,10.8
2023-04-30T06:05:29.000Z,10.8
2023-04-30T06:06:46.000Z,10.7
2023-04-30T06:09:20.117Z,10.6
2023-04-30T06:10:34.000Z,10.7
2023-04-30T06:11:50.000Z,10.9
2023-04-30T06:13:06.000Z,10.8
2023-04-30T06:14:22.940Z,10.9
2023-04-30T06:15:37.000Z,11.1
2023-04-30T06:16:53.000Z,11
2023-04-30T06:18:09.000Z,10.9
2023-04-30T06:19:26.000Z,11.1
2023-04-30T06:20:43.916Z,11.3
2023-04-30T06:21:58.000Z,11.4
2023-04-30T06:23:14.000Z,11.4
2023-04-30T06:24:30.000Z,11.5
2023-04-30T06:25:47.000Z,11.5
2023-04-30T06:27:04.894Z,11.6
2023-04-30T06:28:21.088Z,11.7
2023-04-30T06:29:37.291Z,11.7
2023-04-30T06:30:50.000Z,11.8
2023-04-30T06:32:07.000Z,11.9
2023-04-30T06:33:22.000Z,11.9
2023-04-30T06:34:38.000Z,12.1
2023-04-30T06:35:56.054Z,12.2
2023-04-30T06:37:10.000Z,12.3
2023-04-30T06:38:27.000Z,12.3
2023-04-30T06:39:42.000Z,12.6
2023-04-30T06:40:57.000Z,12.9
2023-04-30T06:42:14.103Z,12.8
2023-04-30T06:43:27.000Z,12.6
2023-04-30T06:44:44.000Z,12.7
2023-04-30T06:46:01.706Z,12.6
2023-04-30T06:47:16.000Z,12.5
2023-04-30T06:48:32.000Z,12.5
2023-04-30T06:49:48.000Z,12.8
2023-04-30T06:51:05.000Z,13.1
2023-04-30T06:52:21.000Z,13.3
2023-04-30T06:53:38.879Z,13.3
2023-04-30T06:54:50.000Z,13.5
2023-04-30T06:54:53.000Z,13.4
2023-04-30T06:56:09.000Z,13.5
2023-04-30T06:57:27.467Z,13.3
2023-04-30T06:58:42.000Z,13.2
2023-04-30T06:59:57.000Z,13.3
2023-04-30T07:02:31.515Z,13.5
2023-04-30T07:03:46.000Z,13.6
2023-04-30T07:05:03.655Z,13.6
2023-04-30T07:06:18.000Z,13.5
2023-04-30T07:07:36.304Z,13.7
2023-04-30T07:08:49.000Z,13.6
2023-04-30T07:10:05.000Z,13.7
2023-04-30T07:11:20.000Z,13.9
2023-04-30T07:12:37.169Z,13.8
2023-04-30T07:13:53.109Z,13.5
2023-04-30T07:15:09.305Z,13.7
2023-04-30T07:16:24.000Z,13.7
2023-04-30T07:17:40.000Z,13.9
2023-04-30T07:18:58.148Z,13.9
2023-04-30T07:20:12.000Z,14
2023-04-30T07:21:28.000Z,14.1
2023-04-30T07:22:45.000Z,14.2
2023-04-30T07:24:01.000Z,14.4
2023-04-30T07:25:17.000Z,14.3
2023-04-30T07:26:33.000Z,14.2
2023-04-30T07:27:51.261Z,14
2023-04-30T07:29:05.000Z,14
2023-04-30T07:30:22.669Z,14.1
2023-04-30T07:31:37.000Z,14.2
2023-04-30T07:32:55.309Z,14.1
2023-04-30T07:34:09.000Z,14.1
2023-04-30T07:35:27.451Z,13.8
2023-04-30T07:36:42.000Z,13.6
2023-04-30T07:37:57.000Z,13.5
2023-04-30T07:39:12.000Z,13.5
2023-04-30T07:40:28.000Z,13.3
2023-04-30T07:41:46.472Z,13.4
2023-04-30T07:43:01.000Z,13.3
2023-04-30T07:44:17.000Z,13.3
2023-04-30T07:45:33.000Z,13.3
2023-04-30T07:46:49.000Z,13.5
2023-04-30T07:48:07.699Z,13.4
2023-04-30T07:49:23.646Z,13.4
2023-04-30T07:50:40.092Z,13.3
2023-04-30T07:51:56.283Z,13.5
2023-04-30T07:53:12.481Z,13.7
2023-04-30T07:54:27.000Z,13.8
2023-04-30T07:55:43.884Z,13.8
2023-04-30T07:56:58.000Z,13.8
2023-04-30T07:58:14.000Z,14
2023-04-30T07:59:30.000Z,14
2023-04-30T08:00:47.000Z,14.2
2023-04-30T08:02:04.860Z,14.3
2023-04-30T08:03:19.000Z,14.4
2023-04-30T08:04:34.000Z,14.2
2023-04-30T08:05:51.248Z,14.1
2023-04-30T08:07:05.000Z,14.1
2023-04-30T08:08:20.000Z,14
2023-04-30T08:09:37.876Z,14.2
2023-04-30T08:10:54.325Z,14.4
2023-04-30T08:12:10.509Z,14.4
2023-04-30T08:13:26.463Z,14.5
2023-04-30T08:14:42.896Z,14.6
2023-04-30T08:15:57.000Z,14.6
2023-04-30T08:17:13.000Z,14.6
2023-04-30T08:18:31.486Z,14.6
2023-04-30T08:19:46.000Z,14.7
2023-04-30T08:21:03.637Z,14.9
2023-04-30T08:22:19.832Z,15
2023-04-30T08:23:34.000Z,15.1
2023-04-30T08:24:49.000Z,15.1
2023-04-30T08:26:06.000Z,15
2023-04-30T08:27:22.000Z,15
2023-04-30T08:28:39.826Z,15
2023-04-30T08:29:54.000Z,15.1
2023-04-30T08:31:12.218Z,15.2
2023-04-30T08:32:27.000Z,15.1
2023-04-30T08:33:42.000Z,15
2023-04-30T08:34:57.000Z,14.9
2023-04-30T08:36:13.000Z,14.9
2023-04-30T08:37:31.239Z,15
2023-04-30T08:38:46.462Z,15.1
2023-04-30T08:40:01.914Z,15.2
2023-04-30T08:41:18.118Z,15.1
2023-04-30T08:42:32.000Z,15.1
2023-04-30T08:43:50.260Z,15.1
2023-04-30T08:45:05.000Z,15.3
2023-04-30T08:46:22.652Z,15.4
2023-04-30T08:47:37.000Z,15.3
2023-04-30T08:48:53.000Z,15.4
2023-04-30T08:50:09.000Z,15.5
2023-04-30T08:51:27.683Z,15.6
2023-04-30T08:52:43.879Z,15.6
2023-04-30T08:53:58.000Z,15.7
2023-04-30T08:55:14.000Z,15.8
2023-04-30T08:56:31.488Z,15.9
2023-04-30T08:57:47.678Z,16
2023-04-30T08:59:03.626Z,16.2
2023-04-30T09:00:18.000Z,16.1
2023-04-30T09:01:34.000Z,16.1
2023-04-30T09:02:50.000Z,16.1
2023-04-30T09:04:07.000Z,16.2
2023-04-30T09:05:23.633Z,16.2
2023-04-30T09:06:37.000Z,16.2
2023-04-30T09:07:52.000Z,16.3
2023-04-30T09:09:07.000Z,16.4
2023-04-30T09:10:24.000Z,16.4
2023-04-30T09:11:40.000Z,16.4
2023-04-30T09:12:56.000Z,16.4
2023-04-30T09:14:14.062Z,16.5
2023-04-30T09:15:28.000Z,16.5
2023-04-30T09:16:46.701Z,16.7
2023-04-30T09:18:02.896Z,16.9
2023-04-30T09:19:17.000Z,16.9
2023-04-30T09:20:33.000Z,16.9
2023-04-30T09:21:51.236Z,16.9
2023-04-30T09:23:06.000Z,17
2023-04-30T09:24:23.878Z,16.9
2023-04-30T09:25:38.839Z,16.9
2023-04-30T09:26:53.000Z,17
2023-04-30T09:28:09.000Z,16.9
2023-04-30T09:29:27.676Z,17
2023-04-30T09:30:42.000Z,17
2023-04-30T09:31:58.000Z,17.2
2023-04-30T09:33:14.000Z,17.4
2023-04-30T09:34:31.236Z,17.5
2023-04-30T09:35:45.000Z,17.5
2023-04-30T09:37:02.644Z,17.5
2023-04-30T09:38:17.000Z,17.4
2023-04-30T09:39:33.000Z,17.4
2023-04-30T09:40:49.000Z,17.5
2023-04-30T09:42:07.673Z,17.3
2023-04-30T09:43:22.000Z,17.4
2023-04-30T09:44:39.819Z,17.5
2023-04-30T09:45:54.000Z,17.3
2023-04-30T09:47:12.211Z,17.5
2023-04-30T09:48:26.000Z,17.6
2023-04-30T09:49:44.603Z,17.7
2023-04-30T09:50:59.000Z,17.7
2023-04-30T09:52:14.000Z,17.7
2023-04-30T09:53:32.454Z,17.7
2023-04-30T09:54:46.000Z,17.7
2023-04-30T09:56:03.000Z,17.7
2023-04-30T09:57:19.000Z,17.8
2023-04-30T09:58:35.000Z,17.9
2023-04-30T09:59:51.000Z,17.8
2023-04-30T10:01:08.410Z,17.8
2023-04-30T10:02:23.622Z,17.7
2023-04-30T10:03:37.000Z,17.9
2023-04-30T10:04:52.000Z,17.9
2023-04-30T10:06:08.000Z,18
2023-04-30T10:07:25.000Z,18.1
2023-04-30T10:08:41.000Z,18.2
2023-04-30T10:09:59.085Z,18.3
2023-04-30T10:11:13.000Z,18.3
2023-04-30T10:12:31.231Z,18.2
2023-04-30T10:13:45.000Z,18.2
2023-04-30T10:15:03.622Z,18.2
2023-04-30T10:16:18.000Z,18.2
2023-04-30T10:17:36.268Z,18.4
2023-04-30T10:18:50.000Z,18.6
2023-04-30T10:20:06.000Z,18.6
2023-04-30T10:21:22.000Z,18.6
2023-04-30T10:22:39.812Z,18.5
2023-04-30T10:23:54.000Z,18.7
2023-04-30T10:25:10.000Z,18.8
2023-04-30T10:26:26.000Z,18.7
2023-04-30T10:27:43.000Z,18.9
2023-04-30T10:28:59.000Z,19
2023-04-30T10:30:14.000Z,18.9
2023-04-30T10:31:29.000Z,18.9
2023-04-30T10:32:47.421Z,19
2023-04-30T10:34:03.617Z,19.1
2023-04-30T10:35:19.813Z,19.1
2023-04-30T10:36:34.000Z,18.9
2023-04-30T10:37:50.000Z,19
2023-04-30T10:39:06.000Z,19.1
2023-04-30T10:40:24.595Z,19.2
2023-04-30T10:41:39.000Z,19.3
2023-04-30T10:42:57.230Z,19.4
2023-04-30T10:44:11.000Z,19.5
2023-04-30T10:45:29.378Z,19.4
2023-04-30T10:46:44.000Z,19.4
2023-04-30T10:47:59.000Z,19.4
2023-04-30T10:49:15.000Z,19.6
2023-04-30T10:50:33.182Z,19.5
2023-04-30T10:51:47.000Z,19.6
2023-04-30T10:53:04.000Z,19.7
2023-04-30T10:54:20.000Z,19.9
2023-04-30T10:55:38.222Z,20
2023-04-30T10:56:53.443Z,20
2023-04-30T10:58:08.676Z,20.1
2023-04-30T10:59:22.000Z,20.1
2023-04-30T11:00:38.833Z,20.1
2023-04-30T11:01:53.000Z,20.1
2023-04-30T11:03:11.226Z,20.4
2023-04-30T11:04:25.000Z,20.6
2023-04-30T11:05:43.617Z,20.5
2023-04-30T11:06:58.000Z,20.4
2023-04-30T11:08:14.000Z,20.3
2023-04-30T11:09:32.462Z,20.3
2023-04-30T11:10:46.000Z,20.4
2023-04-30T11:12:03.000Z,20.2
2023-04-30T11:13:19.000Z,20.2
2023-04-30T11:14:35.000Z,20.2
2023-04-30T11:15:53.185Z,20.2
2023-04-30T11:17:06.000Z,20.2
2023-04-30T11:18:23.000Z,20.3
2023-04-30T11:19:40.787Z,20.4
2023-04-30T11:20:55.000Z,20.6
2023-04-30T11:22:11.000Z,20.8
2023-04-30T11:23:27.000Z,21
2023-04-30T11:24:44.000Z,21
2023-04-30T11:25:59.000Z,20.9
2023-04-30T11:27:14.000Z,20.5
2023-04-30T11:28:31.484Z,20.6
2023-04-30T11:29:46.692Z,20.5
2023-04-30T11:31:00.000Z,20.6
2023-04-30T11:32:16.000Z,20.6
2023-04-30T11:33:31.000Z,20.8
2023-04-30T11:34:49.265Z,20.8
2023-04-30T11:36:03.000Z,20.7
2023-04-30T11:37:20.000Z,20.5
2023-04-30T11:38:37.854Z,20.5
2023-04-30T11:39:54.049Z,20.5
2023-04-30T11:41:08.000Z,20.2
2023-04-30T11:42:24.000Z,20.1
2023-04-30T11:43:41.000Z,20
2023-04-30T11:44:57.000Z,20.1
2023-04-30T11:46:15.028Z,20.2
2023-04-30T11:47:29.000Z,20.1
2023-04-30T11:48:47.675Z,20.1
2023-04-30T11:50:01.000Z,20.2
2023-04-30T11:51:17.000Z,20.1
2023-04-30T11:52:33.000Z,20.2
2023-04-30T11:53:51.218Z,20.1
2023-04-30T11:55:05.000Z,20.2
2023-04-30T11:56:23.859Z,20.1
2023-04-30T11:57:37.000Z,20
2023-04-30T11:58:52.000Z,19.9
2023-04-30T12:00:07.000Z,20.1
2023-04-30T12:01:24.478Z,20
2023-04-30T12:02:39.000Z,20.1
2023-04-30T12:03:55.000Z,20.1
2023-04-30T12:05:11.000Z,20.5
2023-04-30T12:06:27.000Z,20.7
2023-04-30T12:07:45.457Z,20.8
2023-04-30T12:09:01.654Z,20.8
2023-04-30T12:10:16.000Z,20.6
2023-04-30T12:11:32.000Z,20.9
2023-04-30T12:12:48.000Z,21
2023-04-30T12:14:06.691Z,20.8
2023-04-30T12:15:22.633Z,20.8
2023-04-30T12:16:38.829Z,20.7
2023-04-30T12:17:54.040Z,20.4
2023-04-30T12:19:08.000Z,20.2
2023-04-30T12:20:24.000Z,20.3
2023-04-30T12:21:41.000Z,20.3
2023-04-30T12:22:57.000Z,20.2
2023-04-30T12:24:13.000Z,20
2023-04-30T12:25:29.000Z,19.9
2023-04-30T12:26:44.000Z,19.8
2023-04-30T12:28:00.000Z,19.8
2023-04-30T12:29:15.000Z,19.9
2023-04-30T12:30:30.000Z,20
2023-04-30T12:31:46.000Z,20
2023-04-30T12:33:02.000Z,20
2023-04-30T12:34:19.000Z,20.3
2023-04-30T12:35:35.000Z,20.3
2023-04-30T12:36:51.000Z,20.4
2023-04-30T12:38:09.511Z,20.4
2023-04-30T12:39:25.704Z,20.5
2023-04-30T12:40:41.901Z,20.6
2023-04-30T12:41:56.000Z,20.8
2023-04-30T12:43:12.000Z,20.9
2023-04-30T12:44:30.487Z,20.9
2023-04-30T12:45:41.000Z,21.5
2023-04-30T12:45:44.000Z,20.8
2023-04-30T12:47:01.899Z,20.8
2023-04-30T12:48:16.000Z,21.2
2023-04-30T12:49:32.000Z,21.4
2023-04-30T12:50:48.000Z,21.6
2023-04-30T12:53:21.000Z,21.5
2023-04-30T12:54:38.819Z,21.4
2023-04-30T12:55:52.000Z,21.4
2023-04-30T12:57:07.000Z,21.6
2023-04-30T12:58:23.000Z,21.3
2023-04-30T12:59:40.000Z,21.1
2023-04-30T13:00:58.089Z,21.1
2023-04-30T13:02:12.000Z,20.8
2023-04-30T13:03:30.476Z,20.5
2023-04-30T13:04:43.000Z,20.3
2023-04-30T13:06:00.915Z,20.3
2023-04-30T13:07:15.000Z,20.2
2023-04-30T13:08:31.000Z,20.1
2023-04-30T13:09:49.507Z,20.1
2023-04-30T13:11:03.000Z,20
2023-04-30T13:12:20.000Z,20.1
2023-04-30T13:13:38.092Z,20.3
2023-04-30T13:14:52.000Z,20.5
2023-04-30T13:16:08.000Z,20.6
2023-04-30T13:17:24.000Z,20.6
2023-04-30T13:18:41.000Z,20.5
2023-04-30T13:19:57.000Z,20.4
2023-04-30T13:21:13.000Z,20.4
2023-04-30T13:22:28.000Z,20.7
2023-04-30T13:23:44.000Z,20.8
2023-04-30T13:25:01.000Z,20.6
2023-04-30T13:26:17.000Z,20.6
2023-04-30T13:27:33.000Z,20.6
2023-04-30T13:28:49.000Z,20.5
2023-04-30T13:30:07.661Z,20.6
2023-04-30T13:31:22.876Z,20.7
2023-04-30T13:32:38.082Z,20.7
2023-04-30T13:33:52.000Z,20.8
2023-04-30T13:35:09.258Z,20.9
2023-04-30T13:36:22.000Z,20.8
2023-04-30T13:37:40.666Z,20.8
2023-04-30T13:38:55.000Z,20.7
2023-04-30T13:40:11.000Z,20.7
2023-04-30T13:41:27.000Z,20.8
2023-04-30T13:42:43.000Z,21
2023-04-30T13:44:00.000Z,21.1
2023-04-30T13:45:17.827Z,21.4
2023-04-30T13:46:32.000Z,21.5
2023-04-30T13:47:50.469Z,21.6
2023-04-30T13:49:04.000Z,21.4
2023-04-30T13:50:21.000Z,21.3
2023-04-30T13:51:37.000Z,21.4
2023-04-30T13:52:52.000Z,21.2
2023-04-30T13:54:08.000Z,21.1
2023-04-30T13:55:24.000Z,21.3
2023-04-30T13:56:41.000Z,21.7
2023-04-30T13:57:58.780Z,21.9
2023-04-30T13:59:13.000Z,22
2023-04-30T14:00:29.000Z,22
2023-04-30T14:01:46.632Z,21.9
2023-04-30T14:03:01.598Z,22.1
2023-04-30T14:04:16.818Z,22.1
2023-04-30T14:05:30.000Z,22.2
2023-04-30T14:06:46.000Z,22.4
2023-04-30T14:08:04.417Z,22.3
2023-04-30T14:09:19.000Z,22.1
2023-04-30T14:10:36.804Z,22.2
2023-04-30T14:11:51.000Z,22.3
2023-04-30T14:13:09.441Z,22.5
2023-04-30T14:14:23.000Z,22.7
2023-04-30T14:15:41.580Z,22.7
2023-04-30T14:16:58.029Z,22.7
2023-04-30T14:18:13.968Z,22.7
2023-04-30T14:19:28.000Z,22.4
2023-04-30T14:20:44.000Z,22.4
2023-04-30T14:22:01.818Z,22.4
2023-04-30T14:23:18.006Z,22.2
2023-04-30T14:24:32.000Z,22
2023-04-30T14:25:50.149Z,21.9
2023-04-30T14:27:06.601Z,21.9
2023-04-30T14:28:21.000Z,21.9
2023-04-30T14:29:37.000Z,21.8
2023-04-30T14:30:52.000Z,21.8
2023-04-30T14:32:07.000Z,21.8
2023-04-30T14:33:24.382Z,21.9
2023-04-30T14:34:39.842Z,21.9
2023-04-30T14:35:54.000Z,22.1
2023-04-30T14:37:10.000Z,22.3
2023-04-30T14:38:26.000Z,22.4
2023-04-30T14:39:42.000Z,22.6
2023-04-30T14:41:00.561Z,22.6
2023-04-30T14:42:15.000Z,22.9
2023-04-30T14:43:32.949Z,22.9
2023-04-30T14:44:47.000Z,22.8
2023-04-30T14:45:59.000Z,22
2023-04-30T14:46:03.000Z,22.6
2023-04-30T14:47:21.530Z,22.5
2023-04-30T14:48:37.723Z,22.6
2023-04-30T14:49:53.917Z,22.6
2023-04-30T14:51:07.000Z,22.3
2023-04-30T14:53:39.000Z,21.8
2023-04-30T14:54:56.000Z,21.8
2023-04-30T14:56:14.148Z,21.7
2023-04-30T14:57:28.000Z,21.6
2023-04-30T14:58:44.000Z,21.4
2023-04-30T14:59:59.000Z,21.3
2023-04-30T15:01:15.000Z,21.3
2023-04-30T15:02:30.000Z,21.3
2023-04-30T15:03:47.162Z,21.3
2023-04-30T15:05:01.000Z,21.4
2023-04-30T15:06:18.000Z,21.5
2023-04-30T15:07:34.000Z,21.4
2023-04-30T15:08:52.181Z,21.2
2023-04-30T15:10:06.000Z,21.1
2023-04-30T15:11:24.325Z,21.2
2023-04-30T15:12:38.000Z,21.4
2023-04-30T15:13:55.000Z,21.4
2023-04-30T15:15:12.906Z,21.3
2023-04-30T15:16:27.000Z,21.3
2023-04-30T15:17:43.000Z,21.1
2023-04-30T15:19:01.731Z,21.1
2023-04-30T15:20:15.000Z,21.2
2023-04-30T15:21:31.000Z,21.3
2023-04-30T15:22:49.324Z,21.3
2023-04-30T15:24:03.000Z,21.3
2023-04-30T15:25:21.723Z,21.4
2023-04-30T15:26:36.000Z,21.5
2023-04-30T15:27:52.000Z,21.4
2023-04-30T15:29:09.335Z,21.4
2023-04-30T15:30:22.000Z,21.3
2023-04-30T15:31:40.735Z,21.3
2023-04-30T15:32:55.000Z,21.4
2023-04-30T15:34:13.116Z,21.3
2023-04-30T15:35:29.066Z,21.4
2023-04-30T15:36:45.259Z,21.5
2023-04-30T15:38:01.700Z,21.7
2023-04-30T15:39:17.647Z,21.8
2023-04-30T15:40:33.841Z,21.8
2023-04-30T15:41:48.000Z,21.7
2023-04-30T15:43:04.000Z,21.7
2023-04-30T15:44:20.000Z,21.7
2023-04-30T15:45:37.000Z,21.8
2023-04-30T15:46:52.000Z,21.9
2023-04-30T15:48:08.000Z,22.1
2023-04-30T15:49:24.000Z,22
2023-04-30T15:50:40.000Z,21.9
2023-04-30T15:51:57.000Z,21.9
2023-04-30T15:53:13.000Z,21.9
2023-04-30T15:54:29.000Z,21.9
2023-04-30T15:55:46.450Z,21.8
2023-04-30T15:57:01.417Z,21.7
2023-04-30T15:58:16.637Z,21.6
2023-04-30T15:59:32.095Z,21.5
2023-04-30T16:00:48.295Z,21.6
2023-04-30T16:02:04.235Z,21.6
2023-04-30T16:03:20.675Z,21.5
2023-04-30T16:04:36.623Z,21.4
2023-04-30T16:05:51.000Z,21.3
2023-04-30T16:07:09.010Z,21.2
2023-04-30T16:08:23.000Z,21.3
2023-04-30T16:09:39.000Z,21.4
2023-04-30T16:10:56.000Z,21.3
2023-04-30T16:12:12.000Z,21.4
2023-04-30T16:13:28.000Z,21.4
2023-04-30T16:14:44.000Z,21.4
2023-04-30T16:15:59.000Z,21.4
2023-04-30T16:17:16.000Z,21.5
2023-04-30T16:18:32.000Z,21.4
2023-04-30T16:19:49.963Z,21.4
2023-04-30T16:21:04.000Z,21.2
2023-04-30T16:22:22.593Z,21.3
2023-04-30T16:23:38.544Z,21.3
2023-04-30T16:24:52.000Z,21.3
2023-04-30T16:26:08.975Z,21.3
2023-04-30T16:27:25.168Z,21.3
2023-04-30T16:28:41.616Z,21.2
2023-04-30T16:29:57.809Z,21.1
2023-04-30T16:31:12.000Z,21
2023-04-30T16:32:30.195Z,21
2023-04-30T16:33:44.000Z,21
2023-04-30T16:35:00.000Z,21.1
2023-04-30T16:36:16.000Z,21
2023-04-30T16:37:34.972Z,20.9
2023-04-30T16:38:49.000Z,21
2023-04-30T16:40:05.000Z,20.9
2023-04-30T16:41:21.000Z,20.9
2023-04-30T16:42:38.760Z,21
2023-04-30T16:43:53.000Z,21.2
2023-04-30T16:45:11.147Z,21.3
2023-04-30T16:46:25.000Z,21.3
2023-04-30T16:47:43.530Z,21.5
2023-04-30T16:48:57.000Z,21.6
2023-04-30T16:50:15.670Z,21.8
2023-04-30T16:51:31.132Z,21.9
2023-04-30T16:52:44.000Z,22.1
2023-04-30T16:54:01.578Z,22.2
2023-04-30T16:55:16.531Z,22.3
2023-04-30T16:56:31.000Z,22.3
2023-04-30T16:57:47.000Z,22.3
2023-04-30T16:59:03.000Z,22.4
2023-04-30T17:00:21.558Z,22.5
2023-04-30T17:01:35.000Z,22.7
2023-04-30T17:02:52.000Z,22.8
2023-04-30T17:04:08.000Z,22.8
2023-04-30T17:05:26.336Z,22.8
2023-04-30T17:06:40.000Z,22.8
2023-04-30T17:07:56.000Z,22.4